sensor_id;sensor_type;location;lat;lon;timestamp;temperature;humidity
418;DHT22;49;48.530;9.200;2023-05-17T00:00:24;15.80;51.00
418;DHT22;49;48.530;9.200;2023-05-17T00:02:51;16.20;52.50
418;DHT22;49;48.530;9.200;2023-05-17T00:05:18;16.50;50.40
418;DHT22;49;48.530;9.200;2023-05-17T00:07:46;16.70;49.00
418;DHT22;49;48.530;9.200;2023-05-17T00:10:14;16.60;46.50
418;DHT22;49;48.530;9.200;2023-05-17T00:12:41;16.20;43.20
418;DHT22;49;48.530;9.200;2023-05-17T00:15:08;16.40;47.90
418;DHT22;49;48.530;9.200;2023-05-17T00:17:35;16.40;45.10
418;DHT22;49;48.530;9.200;2023-05-17T00:20:03;16.30;47.00
418;DHT22;49;48.530;9.200;2023-05-17T00:22:30;16.10;45.20
418;DHT22;49;48.530;9.200;2023-05-17T00:24:58;15.80;31.30
418;DHT22;49;48.530;9.200;2023-05-17T00:27:26;15.40;41.90
418;DHT22;49;48.530;9.200;2023-05-17T00:29:53;15.50;33.60
418;DHT22;49;48.530;9.200;2023-05-17T00:32:20;15.40;36.30
418;DHT22;49;48.530;9.200;2023-05-17T00:34:46;15.30;45.20
418;DHT22;49;48.530;9.200;2023-05-17T00:37:13;15.60;53.90
418;DHT22;49;48.530;9.200;2023-05-17T00:39:40;15.90;52.60
418;DHT22;49;48.530;9.200;2023-05-17T00:42:09;16.00;45.00
418;DHT22;49;48.530;9.200;2023-05-17T00:44:36;15.90;42.60
418;DHT22;49;48.530;9.200;2023-05-17T00:47:04;15.60;47.20
418;DHT22;49;48.530;9.200;2023-05-17T00:49:30;15.90;36.90
418;DHT22;49;48.530;9.200;2023-05-17T00:51:58;15.60;47.10
418;DHT22;49;48.530;9.200;2023-05-17T00:54:25;15.80;50.90
418;DHT22;49;48.530;9.200;2023-05-17T00:56:53;16.10;52.20
418;DHT22;49;48.530;9.200;2023-05-17T00:59:25;16.30;45.70
418;DHT22;49;48.530;9.200;2023-05-17T01:01:53;16.30;42.40
418;DHT22;49;48.530;9.200;2023-05-17T01:04:20;16.20;48.20
418;DHT22;49;48.530;9.200;2023-05-17T01:06:47;16.40;49.40
418;DHT22;49;48.530;9.200;2023-05-17T01:09:15;15.90;43.10
418;DHT22;49;48.530;9.200;2023-05-17T01:11:51;15.80;40.70
418;DHT22;49;48.530;9.200;2023-05-17T01:14:32;15.90;43.90
418;DHT22;49;48.530;9.200;2023-05-17T01:17:05;16.00;45.50
418;DHT22;49;48.530;9.200;2023-05-17T01:19:44;16.10;47.80
418;DHT22;49;48.530;9.200;2023-05-17T01:22:19;16.60;48.60
418;DHT22;49;48.530;9.200;2023-05-17T01:24:53;16.70;43.60
418;DHT22;49;48.530;9.200;2023-05-17T01:27:27;16.40;41.30
418;DHT22;49;48.530;9.200;2023-05-17T01:29:56;16.40;48.40
418;DHT22;49;48.530;9.200;2023-05-17T01:32:24;16.50;48.50
418;DHT22;49;48.530;9.200;2023-05-17T01:34:51;16.50;49.00
418;DHT22;49;48.530;9.200;2023-05-17T01:37:18;16.70;48.20
418;DHT22;49;48.530;9.200;2023-05-17T01:39:45;16.70;47.40
418;DHT22;49;48.530;9.200;2023-05-17T01:42:15;16.80;47.90
418;DHT22;49;48.530;9.200;2023-05-17T01:44:51;16.80;47.40
418;DHT22;49;48.530;9.200;2023-05-17T01:47:26;16.80;47.40
418;DHT22;49;48.530;9.200;2023-05-17T01:49:58;16.80;46.60
418;DHT22;49;48.530;9.200;2023-05-17T01:52:28;16.80;45.90
418;DHT22;49;48.530;9.200;2023-05-17T01:55:03;16.70;46.50
418;DHT22;49;48.530;9.200;2023-05-17T01:57:33;16.60;46.30
418;DHT22;49;48.530;9.200;2023-05-17T02:00:05;16.70;47.30
418;DHT22;49;48.530;9.200;2023-05-17T02:02:33;16.80;47.50
418;DHT22;49;48.530;9.200;2023-05-17T02:05:01;16.80;46.10
418;DHT22;49;48.530;9.200;2023-05-17T02:07:28;16.60;45.60
418;DHT22;49;48.530;9.200;2023-05-17T02:09:55;16.60;45.90
418;DHT22;49;48.530;9.200;2023-05-17T02:12:23;16.60;44.60
418;DHT22;49;48.530;9.200;2023-05-17T02:14:50;16.50;44.80
418;DHT22;49;48.530;9.200;2023-05-17T02:17:19;16.50;47.20
418;DHT22;49;48.530;9.200;2023-05-17T02:19:46;16.50;48.10
418;DHT22;49;48.530;9.200;2023-05-17T02:22:13;16.30;48.10
418;DHT22;49;48.530;9.200;2023-05-17T02:24:40;16.10;41.70
418;DHT22;49;48.530;9.200;2023-05-17T02:27:07;16.10;43.20
418;DHT22;49;48.530;9.200;2023-05-17T02:29:34;15.70;40.60
418;DHT22;49;48.530;9.200;2023-05-17T02:32:01;15.30;43.50
418;DHT22;49;48.530;9.200;2023-05-17T02:34:29;14.80;40.50
418;DHT22;49;48.530;9.200;2023-05-17T02:36:56;14.50;50.00
418;DHT22;49;48.530;9.200;2023-05-17T02:39:23;14.90;56.50
418;DHT22;49;48.530;9.200;2023-05-17T02:41:50;15.00;56.80
418;DHT22;49;48.530;9.200;2023-05-17T02:44:18;15.30;56.30
418;DHT22;49;48.530;9.200;2023-05-17T02:46:45;15.40;51.40
418;DHT22;49;48.530;9.200;2023-05-17T02:49:12;15.50;55.00
418;DHT22;49;48.530;9.200;2023-05-17T02:51:40;15.50;51.60
418;DHT22;49;48.530;9.200;2023-05-17T02:54:07;15.60;50.40
418;DHT22;49;48.530;9.200;2023-05-17T02:56:34;15.30;38.50
418;DHT22;49;48.530;9.200;2023-05-17T02:59:01;15.20;46.20
418;DHT22;49;48.530;9.200;2023-05-17T03:01:28;15.20;47.30
418;DHT22;49;48.530;9.200;2023-05-17T03:03:55;15.50;52.00
418;DHT22;49;48.530;9.200;2023-05-17T03:06:22;15.50;49.00
418;DHT22;49;48.530;9.200;2023-05-17T03:08:50;15.40;42.70
418;DHT22;49;48.530;9.200;2023-05-17T03:11:17;15.40;48.10
418;DHT22;49;48.530;9.200;2023-05-17T03:13:44;14.90;51.80
418;DHT22;49;48.530;9.200;2023-05-17T03:16:16;14.80;45.50
418;DHT22;49;48.530;9.200;2023-05-17T03:18:43;14.90;53.00
418;DHT22;49;48.530;9.200;2023-05-17T03:21:10;15.00;50.90
418;DHT22;49;48.530;9.200;2023-05-17T03:23:37;15.30;57.00
418;DHT22;49;48.530;9.200;2023-05-17T03:26:05;15.50;53.40
418;DHT22;49;48.530;9.200;2023-05-17T03:28:32;14.90;47.40
418;DHT22;49;48.530;9.200;2023-05-17T03:30:59;15.00;50.00
418;DHT22;49;48.530;9.200;2023-05-17T03:33:26;15.00;50.30
418;DHT22;49;48.530;9.200;2023-05-17T03:35:53;14.90;47.10
418;DHT22;49;48.530;9.200;2023-05-17T03:38:20;14.90;48.60
418;DHT22;49;48.530;9.200;2023-05-17T03:40:47;14.40;44.50
418;DHT22;49;48.530;9.200;2023-05-17T03:43:16;14.30;53.40
418;DHT22;49;48.530;9.200;2023-05-17T03:45:43;14.60;50.90
418;DHT22;49;48.530;9.200;2023-05-17T03:48:10;14.80;51.50
418;DHT22;49;48.530;9.200;2023-05-17T03:50:38;14.70;53.30
418;DHT22;49;48.530;9.200;2023-05-17T03:53:05;14.40;49.70
418;DHT22;49;48.530;9.200;2023-05-17T03:55:32;14.50;53.60
418;DHT22;49;48.530;9.200;2023-05-17T03:58:00;14.50;45.20
418;DHT22;49;48.530;9.200;2023-05-17T04:00:28;14.20;42.80
418;DHT22;49;48.530;9.200;2023-05-17T04:02:55;14.60;55.80
418;DHT22;49;48.530;9.200;2023-05-17T04:05:22;14.30;38.60
418;DHT22;49;48.530;9.200;2023-05-17T04:07:49;14.00;48.50
418;DHT22;49;48.530;9.200;2023-05-17T04:10:16;14.10;48.80
418;DHT22;49;48.530;9.200;2023-05-17T04:12:43;14.00;47.90
418;DHT22;49;48.530;9.200;2023-05-17T04:15:10;14.10;49.90
418;DHT22;49;48.530;9.200;2023-05-17T04:17:39;14.20;46.80
418;DHT22;49;48.530;9.200;2023-05-17T04:20:06;14.10;48.60
418;DHT22;49;48.530;9.200;2023-05-17T04:22:33;14.40;48.00
418;DHT22;49;48.530;9.200;2023-05-17T04:25:00;14.10;44.90
418;DHT22;49;48.530;9.200;2023-05-17T04:27:27;14.00;43.60
418;DHT22;49;48.530;9.200;2023-05-17T04:29:54;14.10;50.10
418;DHT22;49;48.530;9.200;2023-05-17T04:32:21;14.70;53.80
418;DHT22;49;48.530;9.200;2023-05-17T04:34:50;14.70;45.20
418;DHT22;49;48.530;9.200;2023-05-17T04:37:17;14.90;49.10
418;DHT22;49;48.530;9.200;2023-05-17T04:39:44;14.90;42.00
418;DHT22;49;48.530;9.200;2023-05-17T04:42:11;14.80;39.80
418;DHT22;49;48.530;9.200;2023-05-17T04:44:38;14.80;41.60
418;DHT22;49;48.530;9.200;2023-05-17T04:47:05;14.70;39.90
418;DHT22;49;48.530;9.200;2023-05-17T04:49:32;14.60;43.50
418;DHT22;49;48.530;9.200;2023-05-17T04:52:01;14.60;43.80
418;DHT22;49;48.530;9.200;2023-05-17T04:54:28;14.70;41.30
418;DHT22;49;48.530;9.200;2023-05-17T04:56:54;14.60;39.60
418;DHT22;49;48.530;9.200;2023-05-17T04:59:21;14.50;37.70
418;DHT22;49;48.530;9.200;2023-05-17T05:01:48;14.40;37.30
418;DHT22;49;48.530;9.200;2023-05-17T05:04:15;14.30;41.60
418;DHT22;49;48.530;9.200;2023-05-17T05:06:42;14.30;37.20
418;DHT22;49;48.530;9.200;2023-05-17T05:09:11;14.10;37.80
418;DHT22;49;48.530;9.200;2023-05-17T05:11:38;14.00;39.10
418;DHT22;49;48.530;9.200;2023-05-17T05:14:04;14.10;39.10
418;DHT22;49;48.530;9.200;2023-05-17T05:16:31;14.10;39.10
418;DHT22;49;48.530;9.200;2023-05-17T05:18:59;14.30;39.40
418;DHT22;49;48.530;9.200;2023-05-17T05:21:26;14.50;39.50
418;DHT22;49;48.530;9.200;2023-05-17T05:23:54;14.70;38.00
418;DHT22;49;48.530;9.200;2023-05-17T05:26:22;14.70;37.60
418;DHT22;49;48.530;9.200;2023-05-17T05:28:49;15.10;42.80
418;DHT22;49;48.530;9.200;2023-05-17T05:31:16;15.20;37.00
418;DHT22;49;48.530;9.200;2023-05-17T05:33:43;15.80;40.70
418;DHT22;49;48.530;9.200;2023-05-17T05:36:10;17.00;35.20
418;DHT22;49;48.530;9.200;2023-05-17T05:38:37;18.30;38.80
418;DHT22;49;48.530;9.200;2023-05-17T05:41:04;19.60;32.00
418;DHT22;49;48.530;9.200;2023-05-17T05:43:33;20.40;28.50
418;DHT22;49;48.530;9.200;2023-05-17T05:46:01;21.20;23.90
418;DHT22;49;48.530;9.200;2023-05-17T05:48:28;21.80;22.50
418;DHT22;49;48.530;9.200;2023-05-17T05:50:55;22.30;21.30
418;DHT22;49;48.530;9.200;2023-05-17T05:53:22;22.80;22.10
418;DHT22;49;48.530;9.200;2023-05-17T05:55:49;23.10;20.30
418;DHT22;49;48.530;9.200;2023-05-17T05:58:16;23.60;17.80
418;DHT22;49;48.530;9.200;2023-05-17T06:00:44;24.30;17.50
418;DHT22;49;48.530;9.200;2023-05-17T06:03:11;24.80;15.20
418;DHT22;49;48.530;9.200;2023-05-17T06:05:38;24.90;15.30
418;DHT22;49;48.530;9.200;2023-05-17T06:08:05;25.30;13.20
418;DHT22;49;48.530;9.200;2023-05-17T06:10:32;25.80;13.30
418;DHT22;49;48.530;9.200;2023-05-17T06:12:59;25.90;12.20
418;DHT22;49;48.530;9.200;2023-05-17T06:15:26;25.90;12.90
418;DHT22;49;48.530;9.200;2023-05-17T06:17:55;26.50;11.60
418;DHT22;49;48.530;9.200;2023-05-17T06:20:22;26.60;9.40
418;DHT22;49;48.530;9.200;2023-05-17T06:22:49;26.10;11.40
418;DHT22;49;48.530;9.200;2023-05-17T06:25:16;26.00;11.70
418;DHT22;49;48.530;9.200;2023-05-17T06:27:43;26.50;10.40
418;DHT22;49;48.530;9.200;2023-05-17T06:30:11;26.80;11.80
418;DHT22;49;48.530;9.200;2023-05-17T06:32:38;27.30;10.20
418;DHT22;49;48.530;9.200;2023-05-17T06:35:07;27.90;8.60
418;DHT22;49;48.530;9.200;2023-05-17T06:37:34;27.50;8.80
418;DHT22;49;48.530;9.200;2023-05-17T06:40:02;27.80;8.50
418;DHT22;49;48.530;9.200;2023-05-17T06:42:31;28.10;6.90
418;DHT22;49;48.530;9.200;2023-05-17T06:44:58;28.10;6.50
418;DHT22;49;48.530;9.200;2023-05-17T06:47:24;28.00;6.90
418;DHT22;49;48.530;9.200;2023-05-17T06:49:51;26.40;6.50
418;DHT22;49;48.530;9.200;2023-05-17T06:52:20;25.70;9.00
418;DHT22;49;48.530;9.200;2023-05-17T06:54:47;25.80;8.40
418;DHT22;49;48.530;9.200;2023-05-17T06:57:13;26.00;8.30
418;DHT22;49;48.530;9.200;2023-05-17T06:59:40;26.50;8.80
418;DHT22;49;48.530;9.200;2023-05-17T07:02:07;27.10;6.30
418;DHT22;49;48.530;9.200;2023-05-17T07:04:34;26.10;8.10
418;DHT22;49;48.530;9.200;2023-05-17T07:07:01;26.90;7.60
418;DHT22;49;48.530;9.200;2023-05-17T07:09:30;27.50;6.00
418;DHT22;49;48.530;9.200;2023-05-17T07:11:56;27.40;5.80
418;DHT22;49;48.530;9.200;2023-05-17T07:14:23;27.00;6.90
418;DHT22;49;48.530;9.200;2023-05-17T07:16:50;26.50;6.50
418;DHT22;49;48.530;9.200;2023-05-17T07:19:17;26.30;7.50
418;DHT22;49;48.530;9.200;2023-05-17T07:21:44;27.10;6.90
418;DHT22;49;48.530;9.200;2023-05-17T07:24:11;26.20;7.10
418;DHT22;49;48.530;9.200;2023-05-17T07:26:39;25.40;7.40
418;DHT22;49;48.530;9.200;2023-05-17T07:29:06;23.70;8.10
418;DHT22;49;48.530;9.200;2023-05-17T07:31:33;21.00;11.10
418;DHT22;49;48.530;9.200;2023-05-17T07:34:00;20.60;12.80
418;DHT22;49;48.530;9.200;2023-05-17T07:36:27;21.40;12.80
418;DHT22;49;48.530;9.200;2023-05-17T07:38:55;22.60;11.20
418;DHT22;49;48.530;9.200;2023-05-17T07:41:22;23.10;10.90
418;DHT22;49;48.530;9.200;2023-05-17T07:43:50;23.30;9.80
418;DHT22;49;48.530;9.200;2023-05-17T07:46:17;22.10;11.90
418;DHT22;49;48.530;9.200;2023-05-17T07:48:44;21.70;11.10
418;DHT22;49;48.530;9.200;2023-05-17T07:51:11;22.10;11.60
418;DHT22;49;48.530;9.200;2023-05-17T07:53:38;22.90;11.40
418;DHT22;49;48.530;9.200;2023-05-17T07:56:05;23.70;11.30
418;DHT22;49;48.530;9.200;2023-05-17T07:58:32;24.10;10.80
418;DHT22;49;48.530;9.200;2023-05-17T08:01:02;23.90;8.80
418;DHT22;49;48.530;9.200;2023-05-17T08:03:29;24.20;9.50
418;DHT22;49;48.530;9.200;2023-05-17T08:05:56;24.70;9.60
418;DHT22;49;48.530;9.200;2023-05-17T08:08:23;25.10;8.10
418;DHT22;49;48.530;9.200;2023-05-17T08:10:49;25.30;7.50
418;DHT22;49;48.530;9.200;2023-05-17T08:13:16;23.90;8.00
418;DHT22;49;48.530;9.200;2023-05-17T08:15:43;21.80;11.00
418;DHT22;49;48.530;9.200;2023-05-17T08:18:12;21.90;11.90
418;DHT22;49;48.530;9.200;2023-05-17T08:20:38;21.40;12.00
418;DHT22;49;48.530;9.200;2023-05-17T08:23:05;20.60;12.60
418;DHT22;49;48.530;9.200;2023-05-17T08:25:32;19.40;14.80
418;DHT22;49;48.530;9.200;2023-05-17T08:27:59;18.90;16.00
418;DHT22;49;48.530;9.200;2023-05-17T08:30:26;18.80;16.60
418;DHT22;49;48.530;9.200;2023-05-17T08:32:53;18.60;17.00
418;DHT22;49;48.530;9.200;2023-05-17T08:35:22;18.30;17.00
418;DHT22;49;48.530;9.200;2023-05-17T08:37:50;17.50;19.20
418;DHT22;49;48.530;9.200;2023-05-17T08:40:20;17.20;20.20
418;DHT22;49;48.530;9.200;2023-05-17T08:42:47;16.70;21.80
418;DHT22;49;48.530;9.200;2023-05-17T08:45:14;16.90;21.90
418;DHT22;49;48.530;9.200;2023-05-17T08:47:42;16.80;21.00
418;DHT22;49;48.530;9.200;2023-05-17T08:50:10;16.50;26.50
418;DHT22;49;48.530;9.200;2023-05-17T08:52:44;17.30;22.00
418;DHT22;49;48.530;9.200;2023-05-17T08:55:11;17.90;20.80
418;DHT22;49;48.530;9.200;2023-05-17T08:57:41;18.50;18.70
418;DHT22;49;48.530;9.200;2023-05-17T09:00:09;17.50;20.60
418;DHT22;49;48.530;9.200;2023-05-17T09:02:39;16.90;22.10
418;DHT22;49;48.530;9.200;2023-05-17T09:05:07;17.40;22.80
418;DHT22;49;48.530;9.200;2023-05-17T09:07:35;18.20;20.80
418;DHT22;49;48.530;9.200;2023-05-17T09:10:04;18.40;20.00
418;DHT22;49;48.530;9.200;2023-05-17T09:12:31;18.10;18.60
418;DHT22;49;48.530;9.200;2023-05-17T09:15:12;16.90;21.90
418;DHT22;49;48.530;9.200;2023-05-17T09:17:40;17.90;21.00
418;DHT22;49;48.530;9.200;2023-05-17T09:20:07;18.00;21.50
418;DHT22;49;48.530;9.200;2023-05-17T09:22:35;18.00;21.80
418;DHT22;49;48.530;9.200;2023-05-17T09:25:05;18.30;19.50
418;DHT22;49;48.530;9.200;2023-05-17T09:27:32;17.90;20.40
418;DHT22;49;48.530;9.200;2023-05-17T09:30:00;18.50;19.90
418;DHT22;49;48.530;9.200;2023-05-17T09:32:26;18.10;20.30
418;DHT22;49;48.530;9.200;2023-05-17T09:34:54;17.30;20.80
418;DHT22;49;48.530;9.200;2023-05-17T09:37:22;17.30;22.00
418;DHT22;49;48.530;9.200;2023-05-17T09:39:50;18.30;20.90
418;DHT22;49;48.530;9.200;2023-05-17T09:42:18;19.10;19.00
418;DHT22;49;48.530;9.200;2023-05-17T09:44:52;19.10;18.30
418;DHT22;49;48.530;9.200;2023-05-17T09:47:26;18.80;17.80
418;DHT22;49;48.530;9.200;2023-05-17T09:49:55;19.70;17.80
418;DHT22;49;48.530;9.200;2023-05-17T09:52:23;20.50;17.40
418;DHT22;49;48.530;9.200;2023-05-17T09:54:57;21.10;15.50
418;DHT22;49;48.530;9.200;2023-05-17T09:57:27;20.90;14.90
418;DHT22;49;48.530;9.200;2023-05-17T09:59:55;19.30;16.50
418;DHT22;49;48.530;9.200;2023-05-17T10:02:27;18.20;18.10
418;DHT22;49;48.530;9.200;2023-05-17T10:04:56;18.40;19.40
418;DHT22;49;48.530;9.200;2023-05-17T10:07:25;18.60;18.50
418;DHT22;49;48.530;9.200;2023-05-17T10:09:53;18.70;18.50
418;DHT22;49;48.530;9.200;2023-05-17T10:12:21;18.30;18.20
418;DHT22;49;48.530;9.200;2023-05-17T10:14:51;18.10;19.10
418;DHT22;49;48.530;9.200;2023-05-17T10:17:20;17.80;19.30
418;DHT22;49;48.530;9.200;2023-05-17T10:19:48;17.10;20.70
418;DHT22;49;48.530;9.200;2023-05-17T10:22:16;16.30;23.00
418;DHT22;49;48.530;9.200;2023-05-17T10:24:44;16.50;22.10
418;DHT22;49;48.530;9.200;2023-05-17T10:27:12;16.90;20.00
418;DHT22;49;48.530;9.200;2023-05-17T10:29:41;16.80;20.10
418;DHT22;49;48.530;9.200;2023-05-17T10:32:13;17.20;18.30
418;DHT22;49;48.530;9.200;2023-05-17T10:34:42;17.60;19.30
418;DHT22;49;48.530;9.200;2023-05-17T10:37:10;18.10;18.50
418;DHT22;49;48.530;9.200;2023-05-17T10:39:37;17.60;19.80
418;DHT22;49;48.530;9.200;2023-05-17T10:42:06;17.60;18.90
418;DHT22;49;48.530;9.200;2023-05-17T10:44:34;17.50;19.00
418;DHT22;49;48.530;9.200;2023-05-17T10:47:03;17.30;19.40
418;DHT22;49;48.530;9.200;2023-05-17T10:49:32;17.20;19.30
418;DHT22;49;48.530;9.200;2023-05-17T10:52:10;17.10;18.50
418;DHT22;49;48.530;9.200;2023-05-17T10:54:40;17.10;19.90
418;DHT22;49;48.530;9.200;2023-05-17T10:57:08;17.10;19.70
418;DHT22;49;48.530;9.200;2023-05-17T10:59:55;17.30;18.20
418;DHT22;49;48.530;9.200;2023-05-17T11:02:24;17.60;18.80
418;DHT22;49;48.530;9.200;2023-05-17T11:04:52;18.40;18.10
418;DHT22;49;48.530;9.200;2023-05-17T11:07:27;18.20;18.30
418;DHT22;49;48.530;9.200;2023-05-17T11:10:03;17.70;19.30
418;DHT22;49;48.530;9.200;2023-05-17T11:12:33;17.50;19.50
418;DHT22;49;48.530;9.200;2023-05-17T11:15:04;16.80;19.90
418;DHT22;49;48.530;9.200;2023-05-17T11:17:35;16.70;21.10
418;DHT22;49;48.530;9.200;2023-05-17T11:20:06;17.20;20.30
418;DHT22;49;48.530;9.200;2023-05-17T11:22:37;18.00;18.70
418;DHT22;49;48.530;9.200;2023-05-17T11:25:10;18.10;18.00
418;DHT22;49;48.530;9.200;2023-05-17T11:27:46;17.80;19.10
418;DHT22;49;48.530;9.200;2023-05-17T11:30:21;17.00;19.90
418;DHT22;49;48.530;9.200;2023-05-17T11:32:50;17.20;20.20
418;DHT22;49;48.530;9.200;2023-05-17T11:35:22;17.90;21.10
418;DHT22;49;48.530;9.200;2023-05-17T11:37:51;17.50;18.30
418;DHT22;49;48.530;9.200;2023-05-17T11:40:24;17.10;19.30
418;DHT22;49;48.530;9.200;2023-05-17T11:43:10;17.20;18.40
418;DHT22;49;48.530;9.200;2023-05-17T11:45:45;17.60;19.00
418;DHT22;49;48.530;9.200;2023-05-17T11:48:22;17.40;18.90
418;DHT22;49;48.530;9.200;2023-05-17T11:50:52;18.00;18.20
418;DHT22;49;48.530;9.200;2023-05-17T11:53:19;18.50;18.50
418;DHT22;49;48.530;9.200;2023-05-17T11:55:48;18.30;16.80
418;DHT22;49;48.530;9.200;2023-05-17T11:58:17;18.90;18.50
418;DHT22;49;48.530;9.200;2023-05-17T12:00:51;19.00;16.70
418;DHT22;49;48.530;9.200;2023-05-17T12:03:19;18.60;17.00
418;DHT22;49;48.530;9.200;2023-05-17T12:05:48;17.70;19.50
418;DHT22;49;48.530;9.200;2023-05-17T12:08:18;16.80;20.00
418;DHT22;49;48.530;9.200;2023-05-17T12:10:49;16.40;21.60
418;DHT22;49;48.530;9.200;2023-05-17T12:13:16;16.80;22.10
418;DHT22;49;48.530;9.200;2023-05-17T12:15:45;17.20;21.50
418;DHT22;49;48.530;9.200;2023-05-17T12:18:14;17.70;19.10
418;DHT22;49;48.530;9.200;2023-05-17T12:20:54;18.20;19.60
418;DHT22;49;48.530;9.200;2023-05-17T12:23:30;18.50;18.80
418;DHT22;49;48.530;9.200;2023-05-17T12:26:05;18.40;17.10
418;DHT22;49;48.530;9.200;2023-05-17T12:28:32;18.30;17.60
418;DHT22;49;48.530;9.200;2023-05-17T12:31:00;17.90;18.00
418;DHT22;49;48.530;9.200;2023-05-17T12:33:32;18.00;18.30
418;DHT22;49;48.530;9.200;2023-05-17T12:36:01;18.00;17.40
418;DHT22;49;48.530;9.200;2023-05-17T12:38:31;18.10;19.70
418;DHT22;49;48.530;9.200;2023-05-17T12:41:00;18.70;17.60
418;DHT22;49;48.530;9.200;2023-05-17T12:43:27;17.80;17.60
418;DHT22;49;48.530;9.200;2023-05-17T12:46:02;17.30;20.70
418;DHT22;49;48.530;9.200;2023-05-17T12:48:29;17.10;19.80
418;DHT22;49;48.530;9.200;2023-05-17T12:50:56;17.20;20.70
418;DHT22;49;48.530;9.200;2023-05-17T12:53:23;16.60;20.20
418;DHT22;49;48.530;9.200;2023-05-17T12:55:55;16.20;22.10
418;DHT22;49;48.530;9.200;2023-05-17T12:58:23;16.10;22.80
418;DHT22;49;48.530;9.200;2023-05-17T13:01:00;16.40;23.60
418;DHT22;49;48.530;9.200;2023-05-17T13:03:27;16.60;22.00
418;DHT22;49;48.530;9.200;2023-05-17T13:06:02;16.90;21.90
418;DHT22;49;48.530;9.200;2023-05-17T13:08:30;17.00;21.80
418;DHT22;49;48.530;9.200;2023-05-17T13:11:10;17.30;22.10
418;DHT22;49;48.530;9.200;2023-05-17T13:13:37;18.10;20.70
418;DHT22;49;48.530;9.200;2023-05-17T13:16:05;18.00;20.70
418;DHT22;49;48.530;9.200;2023-05-17T13:18:46;17.60;19.70
418;DHT22;49;48.530;9.200;2023-05-17T13:21:13;16.60;19.50
418;DHT22;49;48.530;9.200;2023-05-17T13:23:42;16.70;21.50
418;DHT22;49;48.530;9.200;2023-05-17T13:26:10;16.50;21.50
418;DHT22;49;48.530;9.200;2023-05-17T13:28:39;16.80;20.70
418;DHT22;49;48.530;9.200;2023-05-17T13:31:06;16.90;21.10
418;DHT22;49;48.530;9.200;2023-05-17T13:33:33;16.40;20.60
418;DHT22;49;48.530;9.200;2023-05-17T13:36:00;16.20;21.40
418;DHT22;49;48.530;9.200;2023-05-17T13:38:27;16.30;21.40
418;DHT22;49;48.530;9.200;2023-05-17T13:40:54;16.40;21.50
418;DHT22;49;48.530;9.200;2023-05-17T13:43:22;16.60;21.20
418;DHT22;49;48.530;9.200;2023-05-17T13:45:49;16.70;21.70
418;DHT22;49;48.530;9.200;2023-05-17T13:48:21;15.90;22.30
418;DHT22;49;48.530;9.200;2023-05-17T13:50:48;15.30;25.10
418;DHT22;49;48.530;9.200;2023-05-17T13:53:15;15.70;24.20
418;DHT22;49;48.530;9.200;2023-05-17T13:55:42;16.30;24.30
418;DHT22;49;48.530;9.200;2023-05-17T13:58:10;16.10;24.50
418;DHT22;49;48.530;9.200;2023-05-17T14:00:40;16.00;25.20
418;DHT22;49;48.530;9.200;2023-05-17T14:03:09;16.40;23.90
418;DHT22;49;48.530;9.200;2023-05-17T14:05:37;17.20;22.90
418;DHT22;49;48.530;9.200;2023-05-17T14:08:04;17.50;22.30
418;DHT22;49;48.530;9.200;2023-05-17T14:10:32;18.00;20.50
418;DHT22;49;48.530;9.200;2023-05-17T14:12:59;18.50;20.00
418;DHT22;49;48.530;9.200;2023-05-17T14:15:26;18.90;19.40
418;DHT22;49;48.530;9.200;2023-05-17T14:17:54;19.10;18.70
418;DHT22;49;48.530;9.200;2023-05-17T14:20:21;18.80;19.70
418;DHT22;49;48.530;9.200;2023-05-17T14:22:49;18.80;18.40
418;DHT22;49;48.530;9.200;2023-05-17T14:25:16;18.30;18.80
418;DHT22;49;48.530;9.200;2023-05-17T14:27:43;17.40;20.10
418;DHT22;49;48.530;9.200;2023-05-17T14:30:12;17.20;20.60
418;DHT22;49;48.530;9.200;2023-05-17T14:32:39;18.00;20.40
418;DHT22;49;48.530;9.200;2023-05-17T14:35:08;17.70;19.00
418;DHT22;49;48.530;9.200;2023-05-17T14:37:35;17.60;20.50
418;DHT22;49;48.530;9.200;2023-05-17T14:40:06;17.90;19.80
418;DHT22;49;48.530;9.200;2023-05-17T14:42:33;17.80;20.20
418;DHT22;49;48.530;9.200;2023-05-17T14:45:00;17.50;20.10
418;DHT22;49;48.530;9.200;2023-05-17T14:47:27;17.00;21.60
418;DHT22;49;48.530;9.200;2023-05-17T14:49:54;17.30;21.00
418;DHT22;49;48.530;9.200;2023-05-17T14:52:23;17.40;21.00
418;DHT22;49;48.530;9.200;2023-05-17T14:54:50;16.80;20.90
418;DHT22;49;48.530;9.200;2023-05-17T14:57:17;17.30;19.60
418;DHT22;49;48.530;9.200;2023-05-17T14:59:45;16.90;19.50
418;DHT22;49;48.530;9.200;2023-05-17T15:02:13;17.20;20.10
418;DHT22;49;48.530;9.200;2023-05-17T15:04:40;17.60;19.10
418;DHT22;49;48.530;9.200;2023-05-17T15:07:07;17.10;19.70
418;DHT22;49;48.530;9.200;2023-05-17T15:09:39;16.30;21.60
418;DHT22;49;48.530;9.200;2023-05-17T15:12:08;16.20;22.70
418;DHT22;49;48.530;9.200;2023-05-17T15:14:35;16.60;21.70
418;DHT22;49;48.530;9.200;2023-05-17T15:17:02;16.60;21.70
418;DHT22;49;48.530;9.200;2023-05-17T15:19:29;16.70;21.80
418;DHT22;49;48.530;9.200;2023-05-17T15:21:56;16.00;21.20
418;DHT22;49;48.530;9.200;2023-05-17T15:24:23;16.00;22.60
418;DHT22;49;48.530;9.200;2023-05-17T15:26:51;15.80;23.00
418;DHT22;49;48.530;9.200;2023-05-17T15:29:18;15.50;23.80
418;DHT22;49;48.530;9.200;2023-05-17T15:31:45;15.60;23.90
418;DHT22;49;48.530;9.200;2023-05-17T15:34:12;16.50;22.90
418;DHT22;49;48.530;9.200;2023-05-17T15:36:39;16.50;21.60
418;DHT22;49;48.530;9.200;2023-05-17T15:39:06;15.90;22.30
418;DHT22;49;48.530;9.200;2023-05-17T15:41:33;15.70;23.00
418;DHT22;49;48.530;9.200;2023-05-17T15:44:01;15.90;22.90
418;DHT22;49;48.530;9.200;2023-05-17T15:46:29;15.60;23.50
418;DHT22;49;48.530;9.200;2023-05-17T15:48:56;15.40;23.00
418;DHT22;49;48.530;9.200;2023-05-17T15:51:23;15.50;23.90
418;DHT22;49;48.530;9.200;2023-05-17T15:53:50;15.50;23.20
418;DHT22;49;48.530;9.200;2023-05-17T15:56:17;16.10;22.20
418;DHT22;49;48.530;9.200;2023-05-17T15:58:45;16.40;20.80
418;DHT22;49;48.530;9.200;2023-05-17T16:01:14;16.30;21.50
418;DHT22;49;48.530;9.200;2023-05-17T16:03:41;16.10;21.90
418;DHT22;49;48.530;9.200;2023-05-17T16:06:08;15.60;22.50
418;DHT22;49;48.530;9.200;2023-05-17T16:08:35;15.50;22.60
418;DHT22;49;48.530;9.200;2023-05-17T16:11:02;15.50;21.90
418;DHT22;49;48.530;9.200;2023-05-17T16:13:29;15.70;21.80
418;DHT22;49;48.530;9.200;2023-05-17T16:15:57;16.00;21.20
418;DHT22;49;48.530;9.200;2023-05-17T16:18:25;15.20;21.00
418;DHT22;49;48.530;9.200;2023-05-17T16:20:56;15.30;22.50
418;DHT22;49;48.530;9.200;2023-05-17T16:23:23;15.80;21.10
418;DHT22;49;48.530;9.200;2023-05-17T16:25:50;15.70;22.20
418;DHT22;49;48.530;9.200;2023-05-17T16:28:19;15.50;22.30
418;DHT22;49;48.530;9.200;2023-05-17T16:30:46;15.50;23.10
418;DHT22;49;48.530;9.200;2023-05-17T16:33:13;16.30;22.00
418;DHT22;49;48.530;9.200;2023-05-17T16:35:41;16.70;21.40
418;DHT22;49;48.530;9.200;2023-05-17T16:38:08;15.80;23.00
418;DHT22;49;48.530;9.200;2023-05-17T16:40:36;16.00;23.20
418;DHT22;49;48.530;9.200;2023-05-17T16:43:03;15.90;23.30
418;DHT22;49;48.530;9.200;2023-05-17T16:45:31;15.90;22.90
418;DHT22;49;48.530;9.200;2023-05-17T16:47:58;15.70;22.70
418;DHT22;49;48.530;9.200;2023-05-17T16:50:27;15.60;24.30
418;DHT22;49;48.530;9.200;2023-05-17T16:52:56;15.70;23.80
418;DHT22;49;48.530;9.200;2023-05-17T16:55:23;15.90;22.60
418;DHT22;49;48.530;9.200;2023-05-17T16:57:50;15.60;23.90
418;DHT22;49;48.530;9.200;2023-05-17T17:00:17;15.70;24.00